Time;durP1;ratioP1;P1;durP2;ratioP2;P2;SDS_P1;SDS_P2;PMS_P1;PMS_P2;Temp;Humidity;BMP_temperature;BMP_pressure;BME280_temperature;BME280_humidity;BME280_pressure;Samples;Min_cycle;Max_cycle;Signal;HPM_P1;HPM_P2
2023/07/30 00:00:37;;;;;;;;;;;25.50;58.80;;;;;;3055005;19;4675;-31
2023/07/30 00:01:37;;;;;;;;;;;25.50;58.80;;;;;;3054963;19;4597;-28
2023/07/30 00:02:38;;;;;;;;;;;25.50;58.90;;;;;;3054825;19;4665;-31
2023/07/30 00:03:39;;;;;;;;;;;25.40;58.80;;;;;;3054430;19;4777;-32
2023/07/30 00:04:39;;;;;;;;;;;25.40;58.80;;;;;;3054440;19;4604;-33
2023/07/30 00:05:40;;;;;;;;;;;25.40;58.80;;;;;;3053555;19;4640;-31
2023/07/30 00:06:41;;;;;;;;;;;25.40;58.80;;;;;;3054744;19;4620;-30
2023/07/30 00:07:41;;;;;;;;;;;25.40;58.80;;;;;;3054307;19;4599;-28
2023/07/30 00:08:42;;;;;;;;;;;25.40;58.80;;;;;;3054836;19;4639;-30
2023/07/30 00:09:42;;;;;;;;;;;25.40;58.80;;;;;;3054725;19;4565;-28
2023/07/30 00:10:43;;;;;;;;;;;25.40;58.70;;;;;;3053719;19;4734;-23
2023/07/30 00:11:44;;;;;;;;;;;25.40;58.80;;;;;;3053850;19;4620;-24
2023/07/30 00:12:44;;;;;;;;;;;25.40;58.80;;;;;;3053554;19;4665;-25
2023/07/30 00:13:45;;;;;;;;;;;25.40;58.80;;;;;;3053504;19;4611;-24
2023/07/30 00:14:46;;;;;;;;;;;25.40;58.80;;;;;;3054468;19;4608;-24
2023/07/30 00:15:47;;;;;;;;;;;25.40;58.80;;;;;;3054518;19;4775;-24
2023/07/30 00:16:47;;;;;;;;;;;25.40;58.80;;;;;;3054241;19;4671;-28
2023/07/30 00:17:48;;;;;;;;;;;25.40;58.80;;;;;;3054024;19;4731;-23
2023/07/30 00:18:48;;;;;;;;;;;25.40;59.40;;;;;;3054334;19;4644;-25
2023/07/30 00:19:49;;;;;;;;;;;25.40;58.70;;;;;;3054555;19;4592;-24
2023/07/30 00:20:50;;;;;;;;;;;25.40;58.80;;;;;;3054489;19;4613;-24
2023/07/30 00:21:50;;;;;;;;;;;25.30;58.70;;;;;;3054145;19;4779;-26
2023/07/30 00:22:51;;;;;;;;;;;25.40;58.80;;;;;;3054294;19;4616;-23
2023/07/30 00:23:52;;;;;;;;;;;25.40;58.80;;;;;;3053864;19;4587;-24
2023/07/30 00:24:52;;;;;;;;;;;25.40;58.80;;;;;;3054787;19;4794;-26
2023/07/30 00:25:53;;;;;;;;;;;25.40;58.70;;;;;;3053949;19;4623;-24
2023/07/30 00:26:54;;;;;;;;;;;25.40;58.70;;;;;;3054129;19;4632;-23
2023/07/30 00:27:54;;;;;;;;;;;25.40;58.60;;;;;;3054526;19;4652;-24
2023/07/30 00:28:55;;;;;;;;;;;25.40;58.70;;;;;;3054528;19;4794;-25
2023/07/30 00:29:55;;;;;;;;;;;25.40;58.70;;;;;;3054051;19;4581;-26
2023/07/30 00:30:56;;;;;;;;;;;25.40;58.70;;;;;;3053737;19;4617;-24
2023/07/30 00:31:57;;;;;;;;;;;25.30;58.60;;;;;;3053781;19;4676;-25
2023/07/30 00:32:57;;;;;;;;;;;25.40;58.70;;;;;;3053897;19;4651;-26
2023/07/30 00:33:58;;;;;;;;;;;25.30;58.70;;;;;;3053604;19;4623;-26
2023/07/30 00:34:59;;;;;;;;;;;25.30;58.70;;;;;;3053209;19;4567;-24
2023/07/30 00:35:59;;;;;;;;;;;25.30;58.60;;;;;;3054312;19;4579;-27
2023/07/30 00:37:00;;;;;;;;;;;25.30;58.60;;;;;;3053870;19;4568;-24
2023/07/30 00:38:00;;;;;;;;;;;25.30;58.60;;;;;;3053984;19;4711;-26
2023/07/30 00:39:01;;;;;;;;;;;25.30;58.60;;;;;;3054085;19;4562;-28
2023/07/30 00:40:03;;;;;;;;;;;25.30;58.70;;;;;;3053218;19;4578;-26
2023/07/30 00:41:03;;;;;;;;;;;25.30;58.60;;;;;;3054067;19;4582;-24
2023/07/30 00:42:04;;;;;;;;;;;25.30;58.70;;;;;;3053342;19;4563;-24
2023/07/30 00:43:05;;;;;;;;;;;25.30;58.70;;;;;;3053534;19;4558;-26
2023/07/30 00:44:06;;;;;;;;;;;25.30;58.60;;;;;;3053120;19;20753;-25
2023/07/30 00:45:07;;;;;;;;;;;25.30;58.70;;;;;;3052725;19;4734;-24
2023/07/30 00:46:08;;;;;;;;;;;25.30;58.70;;;;;;3052425;19;4619;-24
2023/07/30 00:47:08;;;;;;;;;;;25.30;58.70;;;;;;3052597;19;4632;-24
2023/07/30 00:48:12;;;;;;;;;;;25.30;58.60;;;;;;3051716;19;4672;-25
2023/07/30 00:49:13;;;;;;;;;;;25.30;58.60;;;;;;3052727;19;4649;-25
2023/07/30 00:50:14;;;;;;;;;;;25.30;58.60;;;;;;3051350;19;4641;-25
2023/07/30 00:51:14;;;;;;;;;;;25.30;58.50;;;;;;3051974;19;4722;-24
2023/07/30 00:52:18;;;;;;;;;;;25.30;58.60;;;;;;3053497;19;944;-26
2023/07/30 00:53:19;;;;;;;;;;;25.30;58.60;;;;;;3051434;19;4590;-24
2023/07/30 00:54:19;;;;;;;;;;;25.30;58.70;;;;;;3051464;19;4692;-23
2023/07/30 00:55:20;;;;;;;;;;;25.30;58.60;;;;;;3052723;19;4834;-26
2023/07/30 00:56:21;;;;;;;;;;;25.30;58.60;;;;;;3053154;19;4663;-24
2023/07/30 00:57:22;;;;;;;;;;;25.30;58.60;;;;;;3053448;19;4698;-23
2023/07/30 00:58:23;;;;;;;;;;;25.20;58.60;;;;;;3053468;19;4587;-25
2023/07/30 00:59:24;;;;;;;;;;;25.30;58.70;;;;;;3054474;19;4655;-26
2023/07/30 01:00:24;;;;;;;;;;;25.20;58.60;;;;;;3052997;19;4607;-28
2023/07/30 01:01:25;;;;;;;;;;;25.20;58.60;;;;;;3051089;19;4619;-27
2023/07/30 01:02:26;;;;;;;;;;;25.20;58.60;;;;;;3058066;19;5281;-83
2023/07/30 01:03:26;;;;;;;;;;;25.20;58.70;;;;;;3057986;19;5185;-79
